createdAt,value
2018-08-13T06:18:45.019Z,95575.1
2018-08-13T06:23:47.565Z,95677.5
2018-08-13T06:28:47.476Z,95282.5
2018-08-13T06:33:46.080Z,95679.3
2018-08-13T06:38:44.259Z,95579.8
2018-08-13T06:43:41.781Z,95578.9
2018-08-13T06:48:39.009Z,95572.8
2018-08-13T06:53:36.133Z,95570.2
2018-08-13T06:58:32.785Z,95674.8
2018-08-13T07:03:29.630Z,95672.3
2018-08-13T07:08:26.313Z,95664
2018-08-13T07:13:23.016Z,95661
2018-08-13T07:18:19.706Z,95662.8
2018-08-13T07:23:16.381Z,95565.1
2018-08-13T07:28:12.992Z,95657.3
2018-08-13T07:33:09.214Z,95561.6
2018-08-13T07:38:05.673Z,95073.5
2018-08-13T07:43:02.131Z,95648.5
2018-08-13T07:47:58.284Z,95647.3
2018-08-13T07:52:54.368Z,95553.7
2018-08-13T07:57:50.247Z,95557.1
2018-08-13T08:02:46.107Z,95548.7
2018-08-13T08:07:41.805Z,95552
2018-08-13T08:12:37.651Z,95548.1
2018-08-13T08:17:33.152Z,95511.8
2018-08-13T08:22:28.986Z,95642.6
2018-08-13T08:27:24.442Z,95743.2
2018-08-13T08:32:19.889Z,95630.7
2018-08-13T08:37:15.203Z,95621.2
2018-08-13T08:42:10.201Z,95625.9
2018-08-13T08:47:05.317Z,95608.7
2018-08-13T08:52:00.420Z,95501.6
2018-08-13T08:56:55.513Z,95492
2018-08-13T09:01:50.750Z,95591.5
2018-08-13T09:06:47.148Z,95487.1
2018-08-13T09:11:41.978Z,95483.4
2018-08-13T09:16:37.091Z,95442.1
2018-08-13T09:21:32.166Z,95479.5
2018-08-13T09:26:27.549Z,95484.8
2018-08-13T09:31:24.323Z,95479.5
2018-08-13T09:36:19.088Z,95473.8
2018-08-13T09:41:14.318Z,95475.4
2018-08-13T09:46:09.737Z,95570.8
2018-08-13T09:49:47.377Z,95535.4
2018-08-13T09:54:42.834Z,95453.5
2018-08-13T09:59:37.286Z,95547.9
2018-08-13T10:04:32.348Z,95434.8
2018-08-13T10:09:27.502Z,95417.9
2018-08-13T10:14:22.479Z,95424.7
2018-08-13T10:19:18.163Z,95418
2018-08-13T10:24:13.553Z,95413.9
2018-08-13T10:29:08.946Z,95525.1
2018-08-13T10:34:04.334Z,95529.9
2018-08-13T10:39:00.091Z,95479.6
2018-08-13T10:43:55.694Z,95517.1
2018-08-13T10:48:51.019Z,95509.9
2018-08-13T10:53:46.657Z,95501
2018-08-13T10:58:42.280Z,95499.6
2018-08-13T11:03:37.848Z,95382.4
2018-08-13T11:08:33.438Z,95492.3
2018-08-13T11:13:28.914Z,95374.3
2018-08-13T11:18:24.578Z,95371.6
2018-08-13T11:23:19.961Z,95483.8
2018-08-13T11:28:15.427Z,95357.3
2018-08-13T11:33:11.012Z,95395.2
2018-08-13T11:38:06.651Z,95471.5
2018-08-13T11:43:02.213Z,95350.9
2018-08-13T11:47:57.873Z,95352.5
2018-08-13T11:52:53.453Z,95443
2018-08-13T11:57:49.135Z,95439.8
2018-08-13T12:02:44.992Z,95339.5
2018-08-13T12:07:40.446Z,95438.5
2018-08-13T12:12:36.104Z,95436.2
2018-08-13T12:17:31.603Z,95330
2018-08-13T12:22:27.245Z,95311.5
2018-08-13T12:27:22.752Z,95323.8
2018-08-13T12:32:18.528Z,95318.1
2018-08-13T12:37:13.252Z,95308.5
2018-08-13T12:42:08.889Z,95306.1
2018-08-13T12:47:04.432Z,95397.9
2018-08-13T12:51:59.873Z,95296.7
2018-08-13T12:56:55.375Z,95286.3
2018-08-13T13:01:50.796Z,95291
2018-08-13T13:06:46.363Z,95389.8
2018-08-13T13:11:41.805Z,95280
2018-08-13T13:16:37.259Z,95275.2
2018-08-13T13:21:32.792Z,95370.7
2018-08-13T13:26:28.467Z,95270.9
2018-08-13T13:31:24.018Z,95124.5
2018-08-13T13:36:19.310Z,95272.1
2018-08-13T13:41:15.125Z,95373.7
2018-08-13T13:46:10.698Z,95319.3
2018-08-13T13:51:06.213Z,95365.4
2018-08-13T13:56:01.812Z,95362.7
2018-08-13T14:00:57.378Z,95259
2018-08-13T14:05:53.082Z,95246.8
2018-08-13T14:10:48.692Z,95343
2018-08-13T14:15:44.103Z,95244.5
2018-08-13T14:20:39.352Z,95230
2018-08-13T14:25:35.038Z,95327.7
2018-08-13T14:30:30.627Z,95211.9
2018-08-13T14:35:25.955Z,95223.5
2018-08-13T14:40:21.422Z,95413.8
2018-08-13T14:45:17.000Z,95217.9
2018-08-13T14:50:12.380Z,95214.8
2018-08-13T14:55:07.766Z,95202
2018-08-13T15:00:03.249Z,95199.9
2018-08-13T15:04:58.759Z,95210.1
2018-08-13T15:09:54.262Z,95308.3
2018-08-13T15:14:49.765Z,95302.7
2018-08-13T15:19:45.185Z,95192.3
2018-08-13T15:24:40.555Z,95196.8
2018-08-13T15:29:35.935Z,95191.6
2018-08-13T15:34:31.481Z,95186.2
2018-08-13T15:39:26.971Z,95231.4
2018-08-13T15:44:22.770Z,95286.6
2018-08-13T15:49:18.370Z,95284.7
2018-08-13T15:54:13.939Z,95176.7
2018-08-13T15:59:09.384Z,95170.7
2018-08-13T16:04:04.979Z,95179.6
2018-08-13T16:09:00.581Z,95269.4
2018-08-13T16:13:55.939Z,95162.6
2018-08-13T16:18:51.242Z,95173.9
2018-08-13T16:23:46.859Z,95274.5
2018-08-13T16:28:42.298Z,95165.1
2018-08-13T16:33:37.851Z,95166.5
2018-08-13T16:38:33.066Z,95164.6
2018-08-13T16:43:28.635Z,95274.3
2018-08-13T16:48:23.975Z,95172.1
2018-08-13T16:53:19.619Z,95174.9
2018-08-13T16:58:15.179Z,95174.3
2018-08-13T17:03:10.855Z,95261
2018-08-13T17:08:06.164Z,95165.2
2018-08-13T17:13:01.603Z,95162.8
2018-08-13T17:17:57.054Z,95167.4
2018-08-13T17:22:52.553Z,95173.9
2018-08-13T17:27:48.085Z,95209.9
2018-08-13T17:32:43.620Z,95182.9
2018-08-13T17:37:39.080Z,95193.3
2018-08-13T17:42:34.671Z,95192
2018-08-13T17:47:30.042Z,95190.6
2018-08-13T17:52:25.542Z,95311.8
2018-08-13T17:57:21.206Z,95311.6
2018-08-13T18:02:16.194Z,95173.3
2018-08-13T18:07:11.427Z,95218.1
2018-08-13T18:12:06.696Z,95324.4
2018-08-13T18:17:02.100Z,95215.1
2018-08-13T18:21:57.717Z,95324.9
2018-08-13T18:26:53.193Z,95322.9
2018-08-13T18:31:48.670Z,95324.6
2018-08-13T18:36:44.033Z,95331
2018-08-13T18:41:39.527Z,95338.4
2018-08-13T18:46:35.062Z,95228.6
2018-08-13T18:51:30.444Z,95337.9
2018-08-13T18:56:26.233Z,95337.5
2018-08-13T19:01:21.319Z,95333.7
2018-08-13T19:06:16.719Z,95334
2018-08-13T19:11:12.320Z,95333.9
2018-08-13T19:16:07.792Z,95337.4
2018-08-13T19:21:03.092Z,95332.9
2018-08-13T19:25:58.864Z,95335.3
2018-08-13T19:30:54.456Z,95326.9
2018-08-13T19:35:50.014Z,95334.5
2018-08-13T19:40:45.456Z,95300
2018-08-13T19:45:40.814Z,95338.3
2018-08-13T19:50:36.331Z,95342.2
2018-08-13T19:55:31.804Z,95350.3
2018-08-13T20:00:27.430Z,95350.2
2018-08-13T20:05:22.948Z,95357.1
2018-08-13T20:10:18.346Z,95356.8
2018-08-13T20:15:13.587Z,95287.6
2018-08-13T20:20:09.357Z,95362.6
2018-08-13T20:25:04.904Z,95396.6
2018-08-13T20:30:00.426Z,95275.8
2018-08-13T20:34:55.669Z,95370.8
2018-08-13T20:39:51.230Z,95264.7
2018-08-13T20:44:46.986Z,95262.9
2018-08-13T20:49:42.476Z,95378.1
2018-08-13T20:54:37.736Z,95377.6
2018-08-13T20:59:33.009Z,95374.2
2018-08-13T21:04:28.029Z,95377.1
2018-08-13T21:09:23.552Z,95382.9
2018-08-13T21:14:18.689Z,94968.7
2018-08-13T21:19:13.890Z,95377.7
2018-08-13T21:24:09.389Z,95387.8
2018-08-13T21:29:09.135Z,95262.4
2018-08-13T21:34:03.506Z,95391.3
2018-08-13T21:38:58.827Z,95396.5
2018-08-13T21:43:54.408Z,95275.8
2018-08-13T21:48:50.106Z,95284.2
2018-08-13T21:53:45.613Z,95273.7
2018-08-13T21:58:41.116Z,95282.2
2018-08-13T22:03:36.743Z,95407.7
2018-08-13T22:08:32.336Z,95278.6
2018-08-13T22:13:27.760Z,95395.2
2018-08-13T22:18:23.303Z,95290.1
2018-08-13T22:23:18.935Z,95331.3
2018-08-13T22:28:14.383Z,95293.8
2018-08-13T22:33:09.988Z,95406.6
2018-08-13T22:38:05.428Z,95403
2018-08-13T22:43:00.881Z,95407.7
2018-08-13T22:47:56.385Z,95413.5
2018-08-13T22:52:51.940Z,95302.2
2018-08-13T22:57:47.406Z,95407.2
2018-08-13T23:02:42.823Z,95285
2018-08-13T23:07:38.669Z,95296.1
2018-08-13T23:12:34.351Z,95290.4
2018-08-13T23:17:29.946Z,95297.7
2018-08-13T23:22:25.560Z,95286
2018-08-13T23:27:21.137Z,95295.6
2018-08-13T23:32:16.604Z,95307.1
2018-08-13T23:37:12.260Z,95291.2
2018-08-13T23:42:07.815Z,95408.1
2018-08-13T23:47:03.170Z,95292.8
2018-08-13T23:51:58.583Z,95410.7
2018-08-13T23:56:54.281Z,95402.8
